Time;durP1;ratioP1;P1;durP2;ratioP2;P2;SDS_P1;SDS_P2;PMS_P1;PMS_P2;Temp;Humidity;BMP_temperature;BMP_pressure;BME280_temperature;BME280_humidity;BME280_pressure;Samples;Min_cycle;Max_cycle;Signal;HPM_P1;HPM_P2
2023/03/26 00:00:39;;;;;;;;;2.00;2.00;;;;;12.51;55.43;100328.00;5038489;28;45536;-78
2023/03/26 00:03:05;;;;;;;;;4.67;1.33;;;;;11.53;55.09;100162.72;5053647;28;47917;-78
2023/03/26 00:05:31;;;;;;;;;2.00;2.00;;;;;12.58;56.09;100328.16;5037796;28;45867;-79
2023/03/26 00:07:57;;;;;;;;;3.67;3.67;;;;;12.40;56.42;100285.66;5033148;28;45555;-83
2023/03/26 00:10:22;;;;;;;;;2.00;0.67;;;;;12.53;57.24;100326.00;5035695;28;45273;-76
2023/03/26 00:12:47;;;;;;;;;2.75;2.00;;;;;12.35;57.05;100304.84;5020479;28;45521;-79
2023/03/26 00:15:13;;;;;;;;;3.00;2.00;;;;;12.27;57.73;100278.19;5017174;28;45366;-78
2023/03/26 00:17:38;;;;;;;;;0.00;0.00;;;;;12.38;57.95;100285.84;5018365;28;45704;-78
2023/03/26 00:20:04;;;;;;;;;1.00;1.00;;;;;12.14;58.13;100248.53;5046619;28;45408;-78
2023/03/26 00:22:29;;;;;;;;;6.33;6.33;;;;;12.00;57.85;100214.53;5037701;28;46781;-78
2023/03/26 00:24:55;;;;;;;;;4.33;3.33;;;;;12.45;57.80;100278.88;5037505;28;45254;-78
2023/03/26 00:27:21;;;;;;;;;2.00;1.00;;;;;12.06;58.33;100227.22;5031681;28;45473;-80
2023/03/26 00:29:47;;;;;;;;;1.00;1.00;;;;;12.10;59.24;100231.22;5017780;28;45189;-77
2023/03/26 00:32:12;;;;;;;;;4.67;3.00;;;;;12.01;58.64;100211.72;5016381;28;48746;-78
2023/03/26 00:34:40;;;;;;;;;2.33;2.00;;;;;12.24;59.75;100246.53;5017642;28;45198;-76
2023/03/26 00:37:05;;;;;;;;;1.00;1.00;;;;;11.54;60.28;100131.59;5019097;28;45355;-78
2023/03/26 00:39:32;;;;;;;;;3.00;3.00;;;;;12.08;60.91;100219.88;5016480;28;45251;-76
2023/03/26 00:41:57;;;;;;;;;1.00;1.00;;;;;12.25;60.92;100252.72;5032562;28;46442;-77
2023/03/26 00:44:23;;;;;;;;;2.67;1.33;;;;;11.77;60.98;100185.88;5036932;28;45462;-77
2023/03/26 00:46:48;;;;;;;;;1.33;1.33;;;;;11.91;61.87;100199.56;5055736;28;45516;-78
2023/03/26 00:49:16;;;;;;;;;1.00;1.00;;;;;11.95;61.92;100204.38;5039825;28;45555;-75
2023/03/26 00:51:41;;;;;;;;;4.00;2.00;;;;;12.01;62.66;100209.03;5039115;28;47620;-77
2023/03/26 00:54:07;;;;;;;;;4.67;2.67;;;;;12.09;62.41;100205.56;5038960;28;46204;-76
2023/03/26 00:56:34;;;;;;;;;1.00;1.00;;;;;10.95;63.02;100024.44;5053098;28;45483;-75
2023/03/26 00:58:59;;;;;;;;;1.33;0.67;;;;;12.05;63.60;100214.91;5055633;28;45466;-77
2023/03/26 01:01:27;;;;;;;;;5.00;2.00;;;;;11.66;64.09;100143.59;5055376;28;46732;-78
2023/03/26 01:03:58;;;;;;;;;1.33;1.33;;;;;11.95;64.33;100195.56;5038421;28;45454;-77
2023/03/26 01:06:31;;;;;;;;;4.00;1.33;;;;;11.90;64.62;100164.09;5056156;28;45577;-75
2023/03/26 01:09:03;;;;;;;;;2.33;2.00;;;;;11.96;65.46;100179.41;5055310;28;46002;-77
2023/03/26 01:11:34;;;;;;;;;2.33;1.33;;;;;11.72;65.10;100126.94;5058096;28;45602;-78
2023/03/26 01:14:09;;;;;;;;;1.00;1.00;;;;;11.93;65.69;100162.94;5060852;28;45308;-76
2023/03/26 01:16:43;;;;;;;;;3.00;1.00;;;;;11.88;65.61;100156.28;5055971;28;45416;-78
2023/03/26 01:19:53;;;;;;;;;1.00;0.67;;;;;11.85;66.73;100145.97;5038966;28;45610;-78
2023/03/26 01:22:21;;;;;;;;;3.00;2.00;;;;;11.85;66.70;100134.47;5038593;28;47248;-77
2023/03/26 01:24:52;;;;;;;;;3.00;2.00;;;;;11.22;67.04;100032.13;5052055;28;45566;-78
2023/03/26 01:27:39;;;;;;;;;5.33;2.00;;;;;11.90;67.45;100148.13;5045609;28;45358;-77
2023/03/26 01:30:24;;;;;;;;;2.00;2.00;;;;;11.87;67.23;100130.66;5057030;28;45282;-78
2023/03/26 01:33:05;;;;;;;;;1.00;1.00;;;;;11.84;68.45;100116.84;5056838;28;46512;-77
2023/03/26 01:35:51;;;;;;;;;3.33;2.00;;;;;11.76;69.17;100112.28;5053987;28;45259;-76
2023/03/26 01:38:28;;;;;;;;;3.33;2.00;;;;;11.80;69.16;100105.66;5038626;28;45274;-76
2023/03/26 01:41:19;;;;;;;;;2.67;2.67;;;;;10.90;68.93;99949.63;5038657;28;45482;-75
2023/03/26 01:43:52;;;;;;;;;5.00;4.00;;;;;11.57;69.42;100064.72;5052655;28;46623;-78
2023/03/26 01:46:21;;;;;;;;;3.67;3.00;;;;;10.77;70.55;99926.19;5055440;28;45525;-77
2023/03/26 01:48:47;;;;;;;;;4.67;2.33;;;;;11.14;70.67;99997.50;5057054;28;45302;-77
2023/03/26 01:51:24;;;;;;;;;5.33;3.00;;;;;11.45;70.55;100034.13;5057961;28;45328;-78
2023/03/26 01:53:49;;;;;;;;;2.00;2.00;;;;;11.24;70.67;99987.56;5054861;28;45597;-76
2023/03/26 01:56:28;;;;;;;;;2.00;2.00;;;;;11.52;71.21;100019.97;5056100;28;45264;-76
2023/03/26 01:58:59;;;;;;;;;3.00;2.00;;;;;11.57;70.68;100004.31;5056369;28;45357;-76
2023/03/26 02:01:28;;;;;;;;;4.33;2.00;;;;;11.55;71.13;100002.81;5056507;28;45318;-76
2023/03/26 02:04:28;;;;;;;;;3.67;3.67;;;;;11.58;71.24;100005.13;5055054;28;46252;-76
2023/03/26 02:07:08;;;;;;;;;1.00;1.00;;;;;11.24;71.49;99934.34;5056079;28;45270;-76
2023/03/26 02:09:44;;;;;;;;;4.00;1.33;;;;;11.51;71.82;99982.88;5059098;28;45257;-77
2023/03/26 02:12:12;;;;;;;;;2.00;2.00;;;;;11.32;71.73;99925.50;5041699;28;45457;-78
2023/03/26 02:14:37;;;;;;;;;6.33;2.33;;;;;11.58;71.61;99954.56;5057755;28;45746;-77
2023/03/26 02:17:03;;;;;;;;;2.33;2.33;;;;;11.55;71.85;99950.41;5059349;28;45359;-77
2023/03/26 02:19:29;;;;;;;;;3.33;1.00;;;;;11.40;72.00;99938.78;5041215;28;45343;-76
2023/03/26 02:21:58;;;;;;;;;2.00;1.00;;;;;11.48;72.45;99928.13;5059716;28;45377;-76
2023/03/26 02:24:24;;;;;;;;;5.33;4.00;;;;;10.63;72.01;99762.88;5040909;28;46578;-76
2023/03/26 02:26:50;;;;;;;;;3.00;2.00;;;;;11.46;71.72;99862.78;5039098;28;45379;-77
2023/03/26 02:29:20;;;;;;;;;3.67;3.00;;;;;11.71;71.50;99892.78;5039320;28;45494;-76
2023/03/26 02:31:50;;;;;;;;;1.67;1.00;;;;;10.94;71.55;99751.50;5039018;28;45459;-76
2023/03/26 02:34:15;;;;;;;;;2.33;1.33;;;;;11.58;71.71;99856.06;5038882;28;45763;-76
2023/03/26 02:36:41;;;;;;;;;1.00;1.00;;;;;11.46;71.58;99860.94;5039206;28;45553;-78
2023/03/26 02:39:09;;;;;;;;;1.00;1.00;;;;;11.45;72.19;99871.75;5021108;28;45285;-77
2023/03/26 02:41:36;;;;;;;;;3.00;2.00;;;;;10.94;72.30;99789.56;5049379;28;45378;-77
2023/03/26 02:44:02;;;;;;;;;2.00;2.00;;;;;11.01;72.70;99781.72;5058714;28;46582;-77
2023/03/26 02:46:27;;;;;;;;;1.33;1.00;;;;;11.21;72.60;99806.97;5058944;28;45488;-75
2023/03/26 02:48:53;;;;;;;;;4.00;2.00;;;;;10.80;73.13;99776.94;5042827;28;45444;-75
2023/03/26 02:51:19;;;;;;;;;3.00;2.67;;;;;11.32;73.12;99832.38;5061416;28;45179;-76
2023/03/26 02:53:44;;;;;;;;;0.00;0.00;;;;;11.30;72.55;99825.56;5042942;28;46700;-75
2023/03/26 02:56:11;;;;;;;;;1.00;1.00;;;;;11.16;72.61;99793.31;5059023;28;45529;-75
2023/03/26 02:58:36;;;;;;;;;2.33;2.33;;;;;11.40;72.94;99805.72;5058956;28;45426;-76
2023/03/26 03:01:02;;;;;;;;;2.33;2.33;;;;;11.45;72.53;99806.06;5035570;28;45534;-76
2023/03/26 03:03:28;;;;;;;;;3.33;1.33;;;;;11.16;73.10;99766.72;5055388;28;46298;-75
2023/03/26 03:05:55;;;;;;;;;2.00;1.00;;;;;10.83;72.72;99696.03;5040269;28;45525;-77
2023/03/26 03:08:23;;;;;;;;;3.00;2.00;;;;;10.28;72.90;99609.97;5059237;28;45331;-76
2023/03/26 03:10:59;;;;;;;;;2.00;2.00;;;;;11.25;73.17;99781.69;5056865;28;45530;-76
2023/03/26 03:13:26;;;;;;;;;1.00;1.00;;;;;11.31;73.02;99774.81;5056219;28;45625;-76
2023/03/26 03:15:52;;;;;;;;;2.00;2.00;;;;;11.28;73.10;99765.34;5040568;28;46134;-75
2023/03/26 03:18:17;;;;;;;;;2.00;1.00;;;;;10.98;72.93;99697.78;5058592;28;45253;-77
2023/03/26 03:20:43;;;;;;;;;3.33;3.00;;;;;10.65;73.17;99638.59;5057499;28;45491;-77
2023/03/26 03:23:09;;;;;;;;;2.33;2.00;;;;;11.38;73.06;99754.50;5058275;28;46043;-78
2023/03/26 03:25:34;;;;;;;;;1.00;1.00;;;;;11.28;72.45;99744.06;5040417;28;45329;-75
2023/03/26 03:28:00;;;;;;;;;2.00;1.00;;;;;11.08;72.46;99694.94;5058417;28;45228;-76
2023/03/26 03:30:25;;;;;;;;;1.67;1.67;;;;;10.51;72.59;99595.97;5039811;28;45504;-77
2023/03/26 03:32:50;;;;;;;;;1.33;1.00;;;;;10.90;72.48;99651.81;5039621;28;46871;-78
2023/03/26 03:35:16;;;;;;;;;2.67;1.00;;;;;11.00;71.50;99676.34;5044904;28;45471;-78
2023/03/26 03:37:41;;;;;;;;;0.67;0.67;;;;;11.31;71.46;99729.59;5058417;28;45690;-78
2023/03/26 03:40:09;;;;;;;;;3.00;1.00;;;;;11.17;69.65;99704.53;5058533;28;45308;-77
2023/03/26 03:42:35;;;;;;;;;1.00;1.00;;;;;11.44;70.47;99747.66;5056607;28;45493;-77
2023/03/26 03:45:01;;;;;;;;;2.33;1.00;;;;;11.46;69.56;99756.31;5057958;28;45447;-76
2023/03/26 03:47:26;;;;;;;;;0.00;0.00;;;;;11.30;70.02;99743.91;5058470;28;45305;-77
2023/03/26 03:49:52;;;;;;;;;0.00;0.00;;;;;11.39;70.23;99752.66;5039862;28;45450;-77
2023/03/26 03:52:17;;;;;;;;;1.67;1.67;;;;;11.46;69.58;99748.31;5047529;28;46545;-76
2023/03/26 03:54:43;;;;;;;;;0.67;0.67;;;;;11.46;69.51;99745.66;5054206;28;45393;-77
2023/03/26 03:57:08;;;;;;;;;0.00;0.00;;;;;11.41;69.47;99762.16;5058179;28;45478;-79
2023/03/26 03:59:34;;;;;;;;;4.00;0.00;;;;;11.16;69.50;99720.66;5058101;28;45420;-77
2023/03/26 04:01:59;;;;;;;;;0.00;0.00;;;;;11.39;69.99;99761.47;5039129;28;61151;-77
2023/03/26 04:04:25;;;;;;;;;2.00;1.00;;;;;10.62;68.36;99638.97;5057716;28;45399;-77
2023/03/26 04:06:51;;;;;;;;;0.00;0.00;;;;;10.47;68.28;99613.25;5036911;28;45493;-77
2023/03/26 04:09:16;;;;;;;;;0.00;0.00;;;;;11.31;68.49;99763.34;5056998;28;45426;-77
2023/03/26 04:11:42;;;;;;;;;0.00;0.00;;;;;10.91;67.68;99682.72;5056150;28;46318;-76
2023/03/26 04:14:07;;;;;;;;;0.33;0.00;;;;;10.38;67.02;99599.16;5057747;28;45253;-76
2023/03/26 04:16:33;;;;;;;;;1.00;0.00;;;;;10.86;66.64;99680.56;5055351;28;45572;-77
2023/03/26 04:19:01;;;;;;;;;0.00;0.00;;;;;11.20;66.96;99753.91;5055961;28;45373;-77
2023/03/26 04:21:29;;;;;;;;;0.00;0.00;;;;;11.21;66.47;99745.78;5057756;28;45795;-76
2023/03/26 04:23:54;;;;;;;;;0.00;0.00;;;;;11.25;66.38;99765.72;5039336;28;45674;-75
2023/03/26 04:26:20;;;;;;;;;0.33;0.33;;;;;10.68;65.50;99656.03;5057485;28;45267;-77
2023/03/26 04:28:55;;;;;;;;;0.00;0.00;;;;;11.15;65.81;99749.09;5038976;28;45505;-75
2023/03/26 04:31:27;;;;;;;;;1.00;1.00;;;;;11.14;65.54;99742.13;5058475;28;45769;-76
2023/03/26 04:33:58;;;;;;;;;0.00;0.00;;;;;11.22;65.18;99766.06;5057989;28;45358;-77
2023/03/26 04:36:28;;;;;;;;;1.00;0.00;;;;;11.31;65.13;99758.03;5057684;28;45283;-78
2023/03/26 04:38:57;;;;;;;;;0.00;0.00;;;;;11.26;64.86;99767.38;5034447;28;46358;-77
2023/03/26 04:41:25;;;;;;;;;0.67;0.67;;;;;11.10;65.35;99727.53;5029800;28;48341;-82
2023/03/26 04:43:51;;;;;;;;;0.67;0.00;;;;;11.32;65.11;99775.66;5044985;28;45278;-77
2023/03/26 04:46:21;;;;;;;;;0.67;0.00;;;;;11.23;64.67;99743.78;5049170;28;45593;-77
2023/03/26 04:48:53;;;;;;;;;0.00;0.00;;;;;11.44;64.09;99790.25;5019135;28;45621;-76
2023/03/26 04:51:25;;;;;;;;;0.00;0.00;;;;;11.31;63.96;99758.03;5052319;28;47546;-75
2023/03/26 04:53:56;;;;;;;;;1.00;0.00;;;;;11.22;64.43;99762.56;5037031;28;46624;-77
2023/03/26 04:56:31;;;;;;;;;1.00;0.00;;;;;11.44;63.69;99784.94;5050657;28;45422;-76
2023/03/26 04:58:59;;;;;;;;;0.00;0.00;;;;;11.38;63.63;99807.72;5051121;28;45383;-76
2023/03/26 05:01:27;;;;;;;;;0.00;0.00;;;;;10.68;63.79;99692.44;5037264;28;46845;-76
2023/03/26 05:03:53;;;;;;;;;0.00;0.00;;;;;11.10;63.77;99766.59;5039613;28;45469;-74
2023/03/26 05:06:18;;;;;;;;;0.00;0.00;;;;;11.07;63.68;99762.44;5036899;28;45386;-77
2023/03/26 05:08:43;;;;;;;;;1.00;0.00;;;;;11.15;63.39;99775.72;5037204;28;45544;-77
2023/03/26 05:11:10;;;;;;;;;0.00;0.00;;;;;10.87;63.21;99747.88;5054170;28;47566;-77
2023/03/26 05:13:35;;;;;;;;;1.00;0.00;;;;;11.42;63.26;99813.56;5020746;28;45847;-77
2023/03/26 05:16:01;;;;;;;;;2.33;1.00;;;;;11.45;63.86;99814.03;5056907;28;45334;-77
2023/03/26 05:18:26;;;;;;;;;0.00;0.00;;;;;10.37;63.12;99653.28;5052209;28;45662;-78
2023/03/26 05:20:52;;;;;;;;;3.00;1.00;;;;;11.02;63.39;99743.53;5052351;28;60479;-78
2023/03/26 05:23:17;;;;;;;;;0.00;0.00;;;;;11.40;62.99;99832.31;5040583;28;45907;-77
2023/03/26 05:25:42;;;;;;;;;0.00;0.00;;;;;11.25;63.10;99808.28;5055895;28;45522;-77
2023/03/26 05:28:09;;;;;;;;;0.00;0.00;;;;;11.31;63.34;99822.72;5056763;28;45486;-76
2023/03/26 05:30:34;;;;;;;;;0.00;0.00;;;;;11.22;63.85;99813.94;5056645;28;46604;-77
2023/03/26 05:33:01;;;;;;;;;1.00;0.00;;;;;11.24;63.09;99825.25;5055630;28;45347;-76
2023/03/26 05:35:27;;;;;;;;;0.00;0.00;;;;;11.37;63.42;99843.31;5056480;28;45337;-74
2023/03/26 05:37:52;;;;;;;;;0.00;0.00;;;;;11.37;63.69;99842.50;5038635;28;45455;-76
2023/03/26 05:40:17;;;;;;;;;0.00;0.00;;;;;11.09;63.26;99803.00;5036581;28;46535;-76
2023/03/26 05:42:44;;;;;;;;;3.00;0.67;;;;;11.27;63.25;99829.41;5020601;28;45712;-75
2023/03/26 05:45:12;;;;;;;;;0.00;0.00;;;;;11.30;63.01;99820.25;5041617;28;45333;-76
2023/03/26 05:47:38;;;;;;;;;0.00;0.00;;;;;11.46;63.04;99854.78;5040148;28;45263;-76
2023/03/26 05:50:05;;;;;;;;;0.00;0.00;;;;;8.41;62.90;99349.28;5021334;28;48055;-75
2023/03/26 05:52:30;;;;;;;;;0.00;0.00;;;;;11.43;62.36;99831.19;5021650;28;45436;-75
2023/03/26 05:54:56;;;;;;;;;2.67;0.00;;;;;11.16;62.47;99800.47;5052572;28;45389;-81
2023/03/26 05:57:22;;;;;;;;;2.00;1.33;;;;;11.41;62.88;99830.50;5040090;28;45248;-76
2023/03/26 05:59:48;;;;;;;;;1.00;0.00;;;;;11.43;62.48;99842.66;5058425;28;46423;-77
2023/03/26 06:02:14;;;;;;;;;2.00;0.33;;;;;11.41;62.22;99827.84;5058493;28;45535;-77
2023/03/26 06:04:41;;;;;;;;;0.00;0.00;;;;;11.37;62.27;99831.84;5058428;28;45387;-77
2023/03/26 06:07:10;;;;;;;;;2.67;0.00;;;;;11.31;62.03;99821.91;5055571;28;45384;-76
2023/03/26 06:09:39;;;;;;;;;2.00;1.00;;;;;11.11;62.38;99787.69;5059776;28;45605;-76
2023/03/26 06:12:05;;;;;;;;;3.00;0.00;;;;;10.86;61.89;99751.53;5061891;28;45313;-77
2023/03/26 06:14:31;;;;;;;;;0.33;0.33;;;;;11.33;61.66;99830.53;5059659;28;45681;-78
2023/03/26 06:16:56;;;;;;;;;0.00;0.00;;;;;10.56;61.43;99716.69;5031762;28;45303;-76
2023/03/26 06:19:22;;;;;;;;;1.00;1.00;;;;;10.80;61.70;99766.31;5041256;28;47300;-77
2023/03/26 06:21:48;;;;;;;;;0.00;0.00;;;;;11.23;61.49;99820.09;5057526;28;45584;-76
2023/03/26 06:24:15;;;;;;;;;2.33;0.00;;;;;10.99;61.08;99789.03;5056575;28;45226;-76
2023/03/26 06:26:41;;;;;;;;;1.33;0.67;;;;;10.53;61.41;99710.88;5059768;28;45246;-77
2023/03/26 06:29:06;;;;;;;;;1.00;1.00;;;;;11.33;60.63;99830.53;5059201;28;45912;-76
2023/03/26 06:31:31;;;;;;;;;0.00;0.00;;;;;11.23;61.06;99818.28;5040262;28;46347;-77
2023/03/26 06:33:57;;;;;;;;;0.00;0.00;;;;;11.52;60.67;99854.09;5033464;28;45407;-78
2023/03/26 06:36:22;;;;;;;;;0.00;0.00;;;;;11.20;60.77;99786.66;5059627;28;45541;-77
2023/03/26 06:38:47;;;;;;;;;0.00;0.00;;;;;11.56;60.70;99839.44;5043468;28;45761;-78
2023/03/26 06:41:13;;;;;;;;;1.00;1.00;;;;;11.26;60.65;99801.97;5029676;28;45601;-76
2023/03/26 06:43:38;;;;;;;;;2.00;1.00;;;;;10.83;60.50;99722.63;5058018;28;45552;-78
2023/03/26 06:46:04;;;;;;;;;1.00;1.00;;;;;10.68;60.18;99687.09;5058145;28;45569;-78
2023/03/26 06:48:30;;;;;;;;;1.67;0.67;;;;;11.64;59.51;99850.06;5058774;28;45686;-77
2023/03/26 06:50:55;;;;;;;;;0.33;0.00;;;;;11.65;59.83;99834.91;5058744;28;45332;-77
2023/03/26 06:53:20;;;;;;;;;2.00;0.00;;;;;11.68;59.93;99842.56;5040711;28;45459;-77
2023/03/26 06:55:46;;;;;;;;;1.67;1.67;;;;;11.47;59.73;99796.06;5038814;28;45607;-75
2023/03/26 06:58:12;;;;;;;;;0.00;0.00;;;;;11.92;59.25;99852.28;5029850;28;56200;-77
2023/03/26 07:00:37;;;;;;;;;1.00;1.00;;;;;11.38;59.17;99762.47;5039085;28;45420;-78
2023/03/26 07:03:04;;;;;;;;;1.67;1.00;;;;;12.04;59.18;99872.22;5057715;28;45427;-75
2023/03/26 07:05:29;;;;;;;;;0.33;0.33;;;;;12.23;58.16;99863.78;5040069;28;45533;-76
2023/03/26 07:07:55;;;;;;;;;1.00;1.00;;;;;11.48;57.53;99722.34;5052781;28;46084;-77
2023/03/26 07:10:20;;;;;;;;;6.33;5.00;;;;;12.18;57.39;99837.63;5055252;28;45573;-75
2023/03/26 07:12:46;;;;;;;;;1.33;1.00;;;;;12.45;57.31;99878.97;5058568;28;45328;-76
2023/03/26 07:15:11;;;;;;;;;1.00;1.00;;;;;12.24;57.27;99829.97;5059097;28;45493;-78
2023/03/26 07:17:38;;;;;;;;;2.00;1.00;;;;;12.57;56.89;99886.53;5037510;28;47100;-78
2023/03/26 07:20:07;;;;;;;;;1.00;0.00;;;;;12.54;57.25;99889.56;5041633;28;45291;-77
2023/03/26 07:22:34;;;;;;;;;0.33;0.00;;;;;12.17;57.51;99845.81;5037179;28;45203;-77
2023/03/26 07:25:00;;;;;;;;;3.33;0.33;;;;;11.82;57.66;99789.44;5039664;28;45239;-73
2023/03/26 07:27:43;;;;;;;;;3.00;1.00;;;;;12.50;57.21;99883.75;5038026;28;45544;-75
2023/03/26 07:30:41;;;;;;;;;0.00;0.00;;;;;12.54;57.29;99874.38;5022235;28;45348;-72
2023/03/26 07:33:33;;;;;;;;;2.00;1.00;;;;;12.58;57.46;99885.53;5041210;28;45341;-78
2023/03/26 07:36:01;;;;;;;;;3.33;2.00;;;;;12.62;57.32;99886.84;5033558;28;45354;-75
2023/03/26 07:38:32;;;;;;;;;1.00;1.00;;;;;12.55;57.56;99888.53;5049879;28;46154;-74
2023/03/26 07:41:10;;;;;;;;;2.00;0.67;;;;;12.40;57.90;99888.47;5042276;28;45328;-76
2023/03/26 07:43:53;;;;;;;;;3.00;0.33;;;;;12.52;57.61;99896.91;5056822;28;45595;-76
2023/03/26 07:46:26;;;;;;;;;2.33;1.00;;;;;12.55;57.38;99902.72;5060634;28;45772;-73
2023/03/26 07:48:53;;;;;;;;;0.67;0.00;;;;;12.48;57.55;99896.44;5040881;28;47683;-77
2023/03/26 07:51:19;;;;;;;;;5.00;4.00;;;;;12.30;57.86;99858.56;5055338;28;45237;-75
2023/03/26 07:53:45;;;;;;;;;2.00;1.00;;;;;12.61;57.57;99899.31;5022996;28;45225;-75
2023/03/26 07:56:15;;;;;;;;;4.00;2.00;;;;;12.71;57.72;99905.25;5043285;28;45336;-78
2023/03/26 07:58:55;;;;;;;;;1.67;1.00;;;;;12.79;57.56;99907.84;5037423;28;47897;-76
2023/03/26 08:01:44;;;;;;;;;3.00;1.00;;;;;12.88;57.03;99903.31;5054949;28;45472;-81
2023/03/26 08:04:22;;;;;;;;;5.00;2.00;;;;;12.88;56.91;99903.31;5054553;28;45411;-74
2023/03/26 08:07:19;;;;;;;;;2.67;1.67;;;;;12.69;57.20;99903.78;5039408;28;45635;-77
2023/03/26 08:10:02;;;;;;;;;3.00;2.00;;;;;12.80;57.35;99914.84;5048593;28;48215;-73
2023/03/26 08:12:45;;;;;;;;;2.33;2.33;;;;;12.84;57.38;99907.34;5052778;28;45644;-76
2023/03/26 08:15:24;;;;;;;;;1.67;1.67;;;;;12.77;57.63;99912.53;5052851;28;45593;-76
2023/03/26 08:18:05;;;;;;;;;4.67;1.33;;;;;12.01;57.84;99800.63;5046885;28;45535;-75
2023/03/26 08:20:43;;;;;;;;;4.33;2.00;;;;;12.71;58.53;99907.09;5053987;28;45647;-75
2023/03/26 08:23:31;;;;;;;;;4.00;2.33;;;;;12.68;57.78;99907.47;5055701;28;45413;-74
2023/03/26 08:26:22;;;;;;;;;4.00;1.67;;;;;12.63;58.42;99907.16;5050995;28;45561;-74
2023/03/26 08:29:01;;;;;;;;;4.33;2.33;;;;;12.63;57.81;99923.16;5049281;28;45245;-75
2023/03/26 08:31:33;;;;;;;;;0.00;0.00;;;;;12.64;58.35;99922.16;5043313;28;46047;-75
2023/03/26 08:33:59;;;;;;;;;2.00;2.00;;;;;12.60;58.05;99907.50;5051457;28;45290;-75
2023/03/26 08:36:25;;;;;;;;;3.00;1.00;;;;;12.65;57.94;99921.16;5038967;28;45409;-79
2023/03/26 08:38:51;;;;;;;;;1.00;1.00;;;;;12.65;58.36;99918.50;5037838;28;46418;-74
2023/03/26 08:41:35;;;;;;;;;1.00;1.00;;;;;12.70;57.68;99929.44;5052654;28;47205;-73
2023/03/26 08:44:35;;;;;;;;;1.33;1.00;;;;;12.71;57.91;99923.09;5054212;28;45512;-73
2023/03/26 08:47:26;;;;;;;;;3.00;1.00;;;;;12.82;57.89;99930.69;5037238;28;45321;-74
2023/03/26 08:50:12;;;;;;;;;3.33;2.00;;;;;12.88;57.32;99932.66;5053691;28;45765;-79
2023/03/26 08:53:11;;;;;;;;;1.00;1.00;;;;;13.00;56.91;99931.19;5057592;28;45879;-75
2023/03/26 08:55:54;;;;;;;;;6.67;1.67;;;;;10.92;56.70;99562.88;5052689;28;45568;-75
2023/03/26 08:58:39;;;;;;;;;0.67;0.67;;;;;13.08;56.20;99919.66;5056151;28;45284;-75
2023/03/26 09:01:22;;;;;;;;;2.33;0.00;;;;;12.98;56.63;99932.38;5057218;28;45317;-74
2023/03/26 09:03:51;;;;;;;;;0.33;0.33;;;;;13.06;55.72;99941.19;5056824;28;46637;-75
2023/03/26 09:06:54;;;;;;;;;0.67;0.67;;;;;13.19;55.54;99931.75;5050918;28;45411;-75
2023/03/26 09:09:45;;;;;;;;;1.00;1.00;;;;;13.16;55.02;99926.75;5057306;28;45355;-75
2023/03/26 09:12:49;;;;;;;;;1.00;0.67;;;;;13.37;54.70;99948.25;5057257;28;45420;-74
2023/03/26 09:15:40;;;;;;;;;0.67;0.67;;;;;13.33;54.16;99946.97;5057696;28;45663;-76
2023/03/26 09:18:37;;;;;;;;;0.67;0.00;;;;;13.07;53.85;99929.50;5056728;28;45595;-77
2023/03/26 09:21:33;;;;;;;;;1.33;0.33;;;;;13.22;54.17;99953.59;5049110;28;45288;-74
2023/03/26 09:24:26;;;;;;;;;0.67;0.67;;;;;13.14;54.13;99931.44;5055421;28;45244;-75
2023/03/26 09:27:21;;;;;;;;;0.67;0.67;;;;;13.29;52.89;99954.50;5039835;28;46768;-74
2023/03/26 09:29:50;;;;;;;;;0.33;0.00;;;;;13.31;53.07;99957.81;5052220;28;45480;-75
2023/03/26 09:32:53;;;;;;;;;0.33;0.00;;;;;13.34;53.34;99972.66;5050136;28;45501;-75
2023/03/26 09:35:37;;;;;;;;;1.00;0.00;;;;;13.44;52.74;99970.56;5050247;28;45424;-75
2023/03/26 09:38:24;;;;;;;;;0.33;0.33;;;;;13.46;52.34;99968.56;5075255;28;46310;-76
2023/03/26 09:41:04;;;;;;;;;0.33;0.00;;;;;13.51;52.73;99979.50;5054927;28;45594;-75
2023/03/26 09:43:39;;;;;;;;;1.67;0.67;;;;;13.21;52.51;99935.06;5051723;28;45571;-73
2023/03/26 09:46:27;;;;;;;;;0.67;0.67;;;;;12.83;52.45;99865.66;5059446;28;45490;-79
2023/03/26 09:49:31;;;;;;;;;0.00;0.00;;;;;13.47;52.28;99978.22;5041886;28;47160;-75
2023/03/26 09:52:03;;;;;;;;;1.33;0.00;;;;;13.40;51.36;99979.94;5060668;28;45351;-75
2023/03/26 09:54:59;;;;;;;;;1.00;0.33;;;;;13.37;52.23;99994.47;5064419;28;45451;-76
2023/03/26 09:57:36;;;;;;;;;8.67;7.67;;;;;13.47;52.26;99991.56;5040018;28;45500;-74
2023/03/26 10:00:14;;;;;;;;;2.33;1.33;;;;;13.51;51.97;100000.88;5038346;28;45565;-73
2023/03/26 10:03:12;;;;;;;;;32.00;31.33;;;;;13.52;52.15;99991.84;5044838;28;45362;-74
2023/03/26 10:05:51;;;;;;;;;3.67;0.33;;;;;13.17;52.04;99949.75;4999734;28;45600;-74
2023/03/26 10:08:26;;;;;;;;;0.00;0.00;;;;;13.56;52.17;100003.00;5037633;28;45614;-74
2023/03/26 10:11:22;;;;;;;;;0.00;0.00;;;;;13.58;51.84;100001.78;5049515;28;45689;-74
2023/03/26 10:14:06;;;;;;;;;1.00;0.33;;;;;13.54;52.19;99995.16;5056282;28;45316;-75
2023/03/26 10:17:10;;;;;;;;;0.50;0.00;;;;;13.44;52.71;100001.78;5034560;28;45432;-76
2023/03/26 10:19:47;;;;;;;;;0.00;0.00;;;;;13.32;52.33;100012.88;5033943;28;45677;-75
2023/03/26 10:22:25;;;;;;;;;0.33;0.00;;;;;13.32;52.33;100004.03;5045657;28;45584;-74
2023/03/26 10:25:30;;;;;;;;;2.33;0.67;;;;;13.36;52.77;100008.84;5045198;28;45530;-72
2023/03/26 10:28:35;;;;;;;;;0.67;0.67;;;;;13.50;52.33;100009.06;5061660;28;45345;-74
2023/03/26 10:31:24;;;;;;;;;0.00;0.00;;;;;13.63;52.04;100015.47;5053837;28;45309;-73
2023/03/26 10:33:59;;;;;;;;;2.67;0.33;;;;;13.79;51.72;100025.13;5050621;28;45906;-71
2023/03/26 10:36:30;;;;;;;;;0.00;0.00;;;;;13.81;51.38;100023.09;5041005;28;46301;-76
2023/03/26 10:39:10;;;;;;;;;0.00;0.00;;;;;13.65;51.79;100008.09;5036211;28;45394;-77
2023/03/26 10:42:04;;;;;;;;;0.00;0.00;;;;;13.84;51.86;100024.59;5058805;28;45312;-75
2023/03/26 10:44:51;;;;;;;;;0.00;0.00;;;;;13.88;51.39;100028.56;5049306;28;46427;-73
2023/03/26 10:47:19;;;;;;;;;0.67;0.67;;;;;14.04;51.32;100027.56;5002254;28;45222;-78
2023/03/26 10:49:55;;;;;;;;;0.67;0.00;;;;;14.11;50.81;100029.31;5018301;28;45329;-76
2023/03/26 10:52:24;;;;;;;;;0.00;0.00;;;;;14.18;50.56;100022.22;5014328;28;45255;-75
2023/03/26 10:55:08;;;;;;;;;1.33;0.00;;;;;14.25;50.56;100036.50;5029086;28;46644;-76
2023/03/26 10:57:53;;;;;;;;;0.00;0.00;;;;;14.37;50.32;100026.16;5019244;28;45273;-73
2023/03/26 11:00:24;;;;;;;;;0.00;0.00;;;;;14.44;50.42;100015.59;5019462;28;45603;-75
2023/03/26 11:03:14;;;;;;;;;0.00;0.00;;;;;14.44;49.93;100027.13;5009379;28;45411;-74
2023/03/26 11:05:54;;;;;;;;;0.00;0.00;;;;;14.08;49.60;99976.22;5010673;28;46322;-73
2023/03/26 11:08:27;;;;;;;;;0.00;0.00;;;;;14.58;49.71;100031.59;5031807;28;45826;-73
2023/03/26 11:11:05;;;;;;;;;0.00;0.00;;;;;14.61;49.78;100006.31;5013308;28;45464;-73
2023/03/26 11:13:49;;;;;;;;;0.00;0.00;;;;;14.22;48.87;99913.91;5017520;28;45338;-71
2023/03/26 11:16:23;;;;;;;;;1.00;1.00;;;;;14.90;48.88;99995.53;5018173;28;45886;-75
2023/03/26 11:19:01;;;;;;;;;0.00;0.00;;;;;14.73;48.99;99975.38;5016941;28;45340;-73
2023/03/26 11:22:14;;;;;;;;;0.00;0.00;;;;;15.11;48.58;100007.28;5018174;28;45318;-74
2023/03/26 11:25:13;;;;;;;;;0.00;0.00;;;;;14.03;48.36;99812.94;4976980;28;45441;-73
2023/03/26 11:27:49;;;;;;;;;1.00;1.00;;;;;15.04;48.77;99971.59;5018861;28;45653;-73
2023/03/26 11:30:27;;;;;;;;;1.00;1.00;;;;;15.36;48.87;100008.53;5018162;28;45520;-74
2023/03/26 11:33:06;;;;;;;;;0.00;0.00;;;;;15.14;48.50;99964.88;5014133;28;45325;-73
2023/03/26 11:35:42;;;;;;;;;0.00;0.00;;;;;15.47;48.06;100021.41;5006333;28;45306;-75
2023/03/26 11:38:37;;;;;;;;;1.00;0.00;;;;;15.54;47.28;100005.38;4998456;28;45791;-80
2023/03/26 11:41:09;;;;;;;;;1.00;1.00;;;;;14.79;46.13;99872.13;4998653;28;45316;-75
2023/03/26 11:43:35;;;;;;;;;0.00;0.00;;;;;15.71;45.79;99998.75;5017386;28;45482;-76
2023/03/26 11:46:07;;;;;;;;;0.00;0.00;;;;;15.74;44.78;99997.53;5027691;28;45597;-72
2023/03/26 11:48:39;;;;;;;;;1.67;0.67;;;;;15.59;44.98;99967.31;5036766;28;45564;-75
2023/03/26 11:51:09;;;;;;;;;10.67;7.00;;;;;15.82;44.12;100010.81;5036529;28;45473;-74
2023/03/26 11:53:39;;;;;;;;;1.33;0.00;;;;;15.47;43.65;99949.09;5035014;28;45520;-76
2023/03/26 11:56:31;;;;;;;;;0.00;0.00;;;;;15.80;43.30;99994.06;5037723;28;45664;-76
2023/03/26 11:58:59;;;;;;;;;2.00;2.00;;;;;15.95;43.46;100016.22;5036302;28;45340;-76